sensor_id;sensor_type;location;lat;lon;timestamp;temperature;humidity
16532;DHT22;66872;63.142;14.482;2023-08-06T00:00:05;18.90;1.00
16532;DHT22;66872;63.142;14.482;2023-08-06T00:02:31;18.90;1.00
16532;DHT22;66872;63.142;14.482;2023-08-06T00:04:56;18.80;1.00
16532;DHT22;66872;63.142;14.482;2023-08-06T00:07:22;18.90;1.00
16532;DHT22;66872;63.142;14.482;2023-08-06T00:09:48;18.80;1.00
16532;DHT22;66872;63.142;14.482;2023-08-06T00:12:13;18.80;1.00
16532;DHT22;66872;63.142;14.482;2023-08-06T00:14:40;18.80;1.00
16532;DHT22;66872;63.142;14.482;2023-08-06T00:17:05;18.80;1.00
16532;DHT22;66872;63.142;14.482;2023-08-06T00:19:32;18.80;1.00
16532;DHT22;66872;63.142;14.482;2023-08-06T00:21:57;18.80;1.00
16532;DHT22;66872;63.142;14.482;2023-08-06T00:24:23;18.80;1.00
16532;DHT22;66872;63.142;14.482;2023-08-06T00:26:49;18.80;1.00
16532;DHT22;66872;63.142;14.482;2023-08-06T00:29:15;18.80;1.00
16532;DHT22;66872;63.142;14.482;2023-08-06T00:31:40;18.80;1.00
16532;DHT22;66872;63.142;14.482;2023-08-06T00:34:06;18.80;1.00
16532;DHT22;66872;63.142;14.482;2023-08-06T00:36:32;18.80;1.00
16532;DHT22;66872;63.142;14.482;2023-08-06T00:38:57;18.80;1.00
16532;DHT22;66872;63.142;14.482;2023-08-06T00:41:23;18.80;1.00
16532;DHT22;66872;63.142;14.482;2023-08-06T00:43:48;18.80;1.00
16532;DHT22;66872;63.142;14.482;2023-08-06T00:46:14;18.80;1.00
16532;DHT22;66872;63.142;14.482;2023-08-06T00:48:41;18.80;1.00
16532;DHT22;66872;63.142;14.482;2023-08-06T00:51:08;18.80;1.00
16532;DHT22;66872;63.142;14.482;2023-08-06T00:53:34;18.80;1.00
16532;DHT22;66872;63.142;14.482;2023-08-06T00:56:00;18.80;1.00
16532;DHT22;66872;63.142;14.482;2023-08-06T00:58:26;18.80;1.00
16532;DHT22;66872;63.142;14.482;2023-08-06T01:00:52;18.80;1.00
16532;DHT22;66872;63.142;14.482;2023-08-06T01:03:17;18.80;1.00
16532;DHT22;66872;63.142;14.482;2023-08-06T01:05:43;18.70;1.00
16532;DHT22;66872;63.142;14.482;2023-08-06T01:10:58;18.80;1.00
16532;DHT22;66872;63.142;14.482;2023-08-06T01:13:38;18.80;1.00
16532;DHT22;66872;63.142;14.482;2023-08-06T01:16:07;18.70;1.00
16532;DHT22;66872;63.142;14.482;2023-08-06T01:18:34;18.70;1.00
16532;DHT22;66872;63.142;14.482;2023-08-06T01:21:00;18.70;1.00
16532;DHT22;66872;63.142;14.482;2023-08-06T01:23:26;18.70;1.00
16532;DHT22;66872;63.142;14.482;2023-08-06T01:26:15;18.70;1.00
16532;DHT22;66872;63.142;14.482;2023-08-06T01:31:30;18.70;1.00
16532;DHT22;66872;63.142;14.482;2023-08-06T01:33:56;18.70;1.00
16532;DHT22;66872;63.142;14.482;2023-08-06T01:36:24;18.70;1.00
16532;DHT22;66872;63.142;14.482;2023-08-06T01:38:52;18.70;1.00
16532;DHT22;66872;63.142;14.482;2023-08-06T01:41:18;18.70;1.00
16532;DHT22;66872;63.142;14.482;2023-08-06T01:43:44;18.70;1.00
16532;DHT22;66872;63.142;14.482;2023-08-06T01:46:10;18.70;1.00
16532;DHT22;66872;63.142;14.482;2023-08-06T01:48:35;18.70;1.00
16532;DHT22;66872;63.142;14.482;2023-08-06T01:51:03;18.70;1.00
16532;DHT22;66872;63.142;14.482;2023-08-06T01:53:29;18.70;1.00
16532;DHT22;66872;63.142;14.482;2023-08-06T01:55:55;18.70;1.00
16532;DHT22;66872;63.142;14.482;2023-08-06T01:58:20;18.70;1.00
16532;DHT22;66872;63.142;14.482;2023-08-06T02:00:46;18.60;1.00
16532;DHT22;66872;63.142;14.482;2023-08-06T02:03:11;18.60;1.00
16532;DHT22;66872;63.142;14.482;2023-08-06T02:05:37;18.60;1.00
16532;DHT22;66872;63.142;14.482;2023-08-06T02:08:03;18.60;1.00
16532;DHT22;66872;63.142;14.482;2023-08-06T02:10:29;18.60;1.00
16532;DHT22;66872;63.142;14.482;2023-08-06T02:12:54;18.60;1.00
16532;DHT22;66872;63.142;14.482;2023-08-06T02:15:20;18.60;1.00
16532;DHT22;66872;63.142;14.482;2023-08-06T02:17:45;18.60;1.00
16532;DHT22;66872;63.142;14.482;2023-08-06T02:20:11;18.60;1.00
16532;DHT22;66872;63.142;14.482;2023-08-06T02:22:37;18.60;1.00
16532;DHT22;66872;63.142;14.482;2023-08-06T02:25:02;18.60;1.00
16532;DHT22;66872;63.142;14.482;2023-08-06T02:27:28;18.60;1.00
16532;DHT22;66872;63.142;14.482;2023-08-06T02:29:54;18.60;1.00
16532;DHT22;66872;63.142;14.482;2023-08-06T02:32:19;18.60;1.00
16532;DHT22;66872;63.142;14.482;2023-08-06T02:34:45;18.60;1.00
16532;DHT22;66872;63.142;14.482;2023-08-06T02:37:11;18.60;1.00
16532;DHT22;66872;63.142;14.482;2023-08-06T02:39:36;18.60;1.00
16532;DHT22;66872;63.142;14.482;2023-08-06T02:42:08;18.60;1.00
16532;DHT22;66872;63.142;14.482;2023-08-06T02:44:34;18.50;1.00
16532;DHT22;66872;63.142;14.482;2023-08-06T02:47:00;18.60;1.00
16532;DHT22;66872;63.142;14.482;2023-08-06T02:49:26;18.50;1.00
16532;DHT22;66872;63.142;14.482;2023-08-06T02:51:52;18.60;1.00
16532;DHT22;66872;63.142;14.482;2023-08-06T02:54:20;18.50;1.00
16532;DHT22;66872;63.142;14.482;2023-08-06T02:56:46;18.50;1.00
16532;DHT22;66872;63.142;14.482;2023-08-06T02:59:13;18.60;1.00
16532;DHT22;66872;63.142;14.482;2023-08-06T03:01:38;18.50;1.00
16532;DHT22;66872;63.142;14.482;2023-08-06T03:04:04;18.50;1.00
16532;DHT22;66872;63.142;14.482;2023-08-06T03:06:30;18.50;1.90
16532;DHT22;66872;63.142;14.482;2023-08-06T03:08:56;18.50;1.00
16532;DHT22;66872;63.142;14.482;2023-08-06T03:11:22;18.50;1.00
16532;DHT22;66872;63.142;14.482;2023-08-06T03:13:47;18.50;1.00
16532;DHT22;66872;63.142;14.482;2023-08-06T03:16:13;18.50;1.00
16532;DHT22;66872;63.142;14.482;2023-08-06T03:18:39;18.50;1.00
16532;DHT22;66872;63.142;14.482;2023-08-06T03:21:05;18.50;1.00
16532;DHT22;66872;63.142;14.482;2023-08-06T03:23:31;18.50;1.00
16532;DHT22;66872;63.142;14.482;2023-08-06T03:26:01;18.50;1.00
16532;DHT22;66872;63.142;14.482;2023-08-06T03:28:27;18.50;1.00
16532;DHT22;66872;63.142;14.482;2023-08-06T03:31:02;18.50;1.00
16532;DHT22;66872;63.142;14.482;2023-08-06T03:33:28;18.50;1.00
16532;DHT22;66872;63.142;14.482;2023-08-06T03:35:54;18.50;1.00
16532;DHT22;66872;63.142;14.482;2023-08-06T03:38:20;18.50;1.00
16532;DHT22;66872;63.142;14.482;2023-08-06T03:40:46;18.50;1.00
16532;DHT22;66872;63.142;14.482;2023-08-06T03:43:12;18.50;4.10
16532;DHT22;66872;63.142;14.482;2023-08-06T03:45:38;18.50;3.90
16532;DHT22;66872;63.142;14.482;2023-08-06T03:48:04;18.50;4.40
16532;DHT22;66872;63.142;14.482;2023-08-06T03:50:29;18.50;1.00
16532;DHT22;66872;63.142;14.482;2023-08-06T03:52:55;18.50;3.80
16532;DHT22;66872;63.142;14.482;2023-08-06T03:55:21;18.50;1.00
16532;DHT22;66872;63.142;14.482;2023-08-06T03:57:47;18.50;1.00
16532;DHT22;66872;63.142;14.482;2023-08-06T04:00:13;18.50;1.00
16532;DHT22;66872;63.142;14.482;2023-08-06T04:02:39;18.50;1.00
16532;DHT22;66872;63.142;14.482;2023-08-06T04:05:04;18.50;1.00
16532;DHT22;66872;63.142;14.482;2023-08-06T04:07:30;18.50;1.00
16532;DHT22;66872;63.142;14.482;2023-08-06T04:10:02;18.50;1.00
16532;DHT22;66872;63.142;14.482;2023-08-06T04:12:28;18.50;1.00
16532;DHT22;66872;63.142;14.482;2023-08-06T04:14:54;18.50;1.00
16532;DHT22;66872;63.142;14.482;2023-08-06T04:17:21;18.50;1.00
16532;DHT22;66872;63.142;14.482;2023-08-06T04:19:54;18.50;1.00
16532;DHT22;66872;63.142;14.482;2023-08-06T04:22:21;18.50;1.00
16532;DHT22;66872;63.142;14.482;2023-08-06T04:24:47;18.50;1.00
16532;DHT22;66872;63.142;14.482;2023-08-06T04:27:14;18.50;1.00
16532;DHT22;66872;63.142;14.482;2023-08-06T04:29:40;18.50;1.00
16532;DHT22;66872;63.142;14.482;2023-08-06T04:32:08;18.50;1.00
16532;DHT22;66872;63.142;14.482;2023-08-06T04:34:35;18.50;1.00
16532;DHT22;66872;63.142;14.482;2023-08-06T04:37:01;18.50;1.00
16532;DHT22;66872;63.142;14.482;2023-08-06T04:39:27;18.50;1.00
16532;DHT22;66872;63.142;14.482;2023-08-06T04:41:53;18.50;1.00
16532;DHT22;66872;63.142;14.482;2023-08-06T04:44:19;18.50;1.00
16532;DHT22;66872;63.142;14.482;2023-08-06T04:46:44;18.50;1.00
16532;DHT22;66872;63.142;14.482;2023-08-06T04:49:10;18.50;1.00
16532;DHT22;66872;63.142;14.482;2023-08-06T04:51:36;18.50;1.00
16532;DHT22;66872;63.142;14.482;2023-08-06T04:54:01;18.50;1.00
16532;DHT22;66872;63.142;14.482;2023-08-06T04:56:27;18.50;1.00
16532;DHT22;66872;63.142;14.482;2023-08-06T04:58:53;18.50;1.00
16532;DHT22;66872;63.142;14.482;2023-08-06T05:01:18;18.60;1.00
16532;DHT22;66872;63.142;14.482;2023-08-06T05:03:44;18.60;1.00
16532;DHT22;66872;63.142;14.482;2023-08-06T05:06:10;18.60;1.00
16532;DHT22;66872;63.142;14.482;2023-08-06T05:08:36;18.60;1.00
16532;DHT22;66872;63.142;14.482;2023-08-06T05:11:02;18.60;1.00
16532;DHT22;66872;63.142;14.482;2023-08-06T05:13:27;18.60;1.00
16532;DHT22;66872;63.142;14.482;2023-08-06T05:15:53;18.60;1.00
16532;DHT22;66872;63.142;14.482;2023-08-06T05:18:19;18.60;1.00
16532;DHT22;66872;63.142;14.482;2023-08-06T05:20:45;18.60;1.00
16532;DHT22;66872;63.142;14.482;2023-08-06T05:23:11;18.60;1.00
16532;DHT22;66872;63.142;14.482;2023-08-06T05:25:38;18.60;1.00
16532;DHT22;66872;63.142;14.482;2023-08-06T05:28:04;18.60;1.00
16532;DHT22;66872;63.142;14.482;2023-08-06T05:30:30;18.60;1.00
16532;DHT22;66872;63.142;14.482;2023-08-06T05:32:56;18.60;1.40
16532;DHT22;66872;63.142;14.482;2023-08-06T05:35:22;18.60;1.00
16532;DHT22;66872;63.142;14.482;2023-08-06T05:37:48;18.60;1.00
16532;DHT22;66872;63.142;14.482;2023-08-06T05:40:14;18.60;1.10
16532;DHT22;66872;63.142;14.482;2023-08-06T05:42:40;18.60;1.60
16532;DHT22;66872;63.142;14.482;2023-08-06T05:45:07;18.60;1.00
16532;DHT22;66872;63.142;14.482;2023-08-06T05:47:33;18.60;1.40
16532;DHT22;66872;63.142;14.482;2023-08-06T05:49:58;18.60;1.00
16532;DHT22;66872;63.142;14.482;2023-08-06T05:52:24;18.60;1.00
16532;DHT22;66872;63.142;14.482;2023-08-06T05:54:50;18.60;1.00
16532;DHT22;66872;63.142;14.482;2023-08-06T05:57:16;18.60;1.00
16532;DHT22;66872;63.142;14.482;2023-08-06T05:59:42;18.60;1.00
16532;DHT22;66872;63.142;14.482;2023-08-06T06:02:08;18.70;1.00
16532;DHT22;66872;63.142;14.482;2023-08-06T06:04:33;18.60;1.00
16532;DHT22;66872;63.142;14.482;2023-08-06T06:06:59;18.60;1.00
16532;DHT22;66872;63.142;14.482;2023-08-06T06:09:25;18.60;1.00
16532;DHT22;66872;63.142;14.482;2023-08-06T06:11:50;18.60;1.00
16532;DHT22;66872;63.142;14.482;2023-08-06T06:14:17;18.60;1.00
16532;DHT22;66872;63.142;14.482;2023-08-06T06:16:43;18.60;1.00
16532;DHT22;66872;63.142;14.482;2023-08-06T06:19:09;18.70;1.00
16532;DHT22;66872;63.142;14.482;2023-08-06T06:21:34;18.70;1.00
16532;DHT22;66872;63.142;14.482;2023-08-06T06:24:00;18.70;1.00
16532;DHT22;66872;63.142;14.482;2023-08-06T06:26:25;18.70;1.00
16532;DHT22;66872;63.142;14.482;2023-08-06T06:28:51;18.70;1.00
16532;DHT22;66872;63.142;14.482;2023-08-06T06:31:17;18.70;1.00
16532;DHT22;66872;63.142;14.482;2023-08-06T06:33:42;18.80;1.00
16532;DHT22;66872;63.142;14.482;2023-08-06T06:36:08;18.90;1.00
16532;DHT22;66872;63.142;14.482;2023-08-06T06:38:35;18.90;1.00
16532;DHT22;66872;63.142;14.482;2023-08-06T06:41:00;18.90;1.00
16532;DHT22;66872;63.142;14.482;2023-08-06T06:43:28;18.90;1.00
16532;DHT22;66872;63.142;14.482;2023-08-06T06:45:57;18.90;1.00
16532;DHT22;66872;63.142;14.482;2023-08-06T06:48:25;18.90;1.00
16532;DHT22;66872;63.142;14.482;2023-08-06T06:50:50;19.00;1.00
16532;DHT22;66872;63.142;14.482;2023-08-06T06:53:16;19.00;1.00
16532;DHT22;66872;63.142;14.482;2023-08-06T06:55:42;19.00;1.00
16532;DHT22;66872;63.142;14.482;2023-08-06T06:58:08;18.90;1.00
16532;DHT22;66872;63.142;14.482;2023-08-06T07:00:36;19.00;1.00
16532;DHT22;66872;63.142;14.482;2023-08-06T07:03:02;18.90;1.00
16532;DHT22;66872;63.142;14.482;2023-08-06T07:05:28;18.90;1.00
16532;DHT22;66872;63.142;14.482;2023-08-06T07:07:54;18.90;1.00
16532;DHT22;66872;63.142;14.482;2023-08-06T07:10:19;18.90;1.00
16532;DHT22;66872;63.142;14.482;2023-08-06T07:12:45;18.90;1.00
16532;DHT22;66872;63.142;14.482;2023-08-06T07:15:11;19.00;1.00
16532;DHT22;66872;63.142;14.482;2023-08-06T07:17:37;19.00;1.00
16532;DHT22;66872;63.142;14.482;2023-08-06T07:20:03;19.00;1.00
16532;DHT22;66872;63.142;14.482;2023-08-06T07:22:29;19.10;1.00
16532;DHT22;66872;63.142;14.482;2023-08-06T07:24:55;19.20;1.00
16532;DHT22;66872;63.142;14.482;2023-08-06T07:27:21;19.20;1.00
16532;DHT22;66872;63.142;14.482;2023-08-06T07:29:46;19.30;1.00
16532;DHT22;66872;63.142;14.482;2023-08-06T07:32:13;19.30;1.00
16532;DHT22;66872;63.142;14.482;2023-08-06T07:34:39;19.30;1.00
16532;DHT22;66872;63.142;14.482;2023-08-06T07:37:05;19.30;1.00
16532;DHT22;66872;63.142;14.482;2023-08-06T07:39:31;19.30;1.00
16532;DHT22;66872;63.142;14.482;2023-08-06T07:41:57;19.30;1.00
16532;DHT22;66872;63.142;14.482;2023-08-06T07:44:22;19.30;1.00
16532;DHT22;66872;63.142;14.482;2023-08-06T07:46:49;19.30;1.00
16532;DHT22;66872;63.142;14.482;2023-08-06T07:49:15;19.30;1.00
16532;DHT22;66872;63.142;14.482;2023-08-06T07:51:40;19.30;1.00
16532;DHT22;66872;63.142;14.482;2023-08-06T07:54:06;19.30;1.00
16532;DHT22;66872;63.142;14.482;2023-08-06T07:56:32;19.30;1.00
16532;DHT22;66872;63.142;14.482;2023-08-06T07:58:58;19.30;1.00
16532;DHT22;66872;63.142;14.482;2023-08-06T08:01:23;19.30;1.00
16532;DHT22;66872;63.142;14.482;2023-08-06T08:03:49;19.30;1.00
16532;DHT22;66872;63.142;14.482;2023-08-06T08:06:15;19.30;1.00
16532;DHT22;66872;63.142;14.482;2023-08-06T08:08:40;19.30;1.00
16532;DHT22;66872;63.142;14.482;2023-08-06T08:11:06;19.30;1.00
16532;DHT22;66872;63.142;14.482;2023-08-06T08:13:32;19.20;1.00
16532;DHT22;66872;63.142;14.482;2023-08-06T08:15:58;19.20;1.00
16532;DHT22;66872;63.142;14.482;2023-08-06T08:18:25;19.20;1.00
16532;DHT22;66872;63.142;14.482;2023-08-06T08:20:51;19.20;1.00
16532;DHT22;66872;63.142;14.482;2023-08-06T08:23:16;19.20;1.00
16532;DHT22;66872;63.142;14.482;2023-08-06T08:25:42;19.10;1.00
16532;DHT22;66872;63.142;14.482;2023-08-06T08:28:08;19.10;1.00
16532;DHT22;66872;63.142;14.482;2023-08-06T08:30:33;19.20;1.00
16532;DHT22;66872;63.142;14.482;2023-08-06T08:32:59;19.20;1.00
16532;DHT22;66872;63.142;14.482;2023-08-06T08:35:25;19.20;1.00
16532;DHT22;66872;63.142;14.482;2023-08-06T08:37:50;19.20;1.00
16532;DHT22;66872;63.142;14.482;2023-08-06T08:40:17;19.30;1.00
16532;DHT22;66872;63.142;14.482;2023-08-06T08:42:43;19.20;1.00
16532;DHT22;66872;63.142;14.482;2023-08-06T08:45:13;19.20;1.00
16532;DHT22;66872;63.142;14.482;2023-08-06T08:47:43;19.20;1.00
16532;DHT22;66872;63.142;14.482;2023-08-06T08:50:09;19.20;1.00
16532;DHT22;66872;63.142;14.482;2023-08-06T08:52:39;19.20;1.00
16532;DHT22;66872;63.142;14.482;2023-08-06T08:55:07;19.20;1.00
16532;DHT22;66872;63.142;14.482;2023-08-06T08:57:33;19.20;1.00
16532;DHT22;66872;63.142;14.482;2023-08-06T08:59:58;19.20;1.00
16532;DHT22;66872;63.142;14.482;2023-08-06T09:02:26;19.20;1.00
16532;DHT22;66872;63.142;14.482;2023-08-06T09:04:55;19.20;1.00
16532;DHT22;66872;63.142;14.482;2023-08-06T09:07:22;19.30;1.00
16532;DHT22;66872;63.142;14.482;2023-08-06T09:09:49;19.30;1.20
16532;DHT22;66872;63.142;14.482;2023-08-06T09:12:16;19.40;1.00
16532;DHT22;66872;63.142;14.482;2023-08-06T09:14:42;19.50;1.00
16532;DHT22;66872;63.142;14.482;2023-08-06T09:17:08;19.50;1.00
16532;DHT22;66872;63.142;14.482;2023-08-06T09:19:36;19.60;1.00
16532;DHT22;66872;63.142;14.482;2023-08-06T09:22:02;19.60;1.30
16532;DHT22;66872;63.142;14.482;2023-08-06T09:24:27;19.60;1.10
16532;DHT22;66872;63.142;14.482;2023-08-06T09:26:53;19.60;1.00
16532;DHT22;66872;63.142;14.482;2023-08-06T09:29:20;19.60;1.00
16532;DHT22;66872;63.142;14.482;2023-08-06T09:31:47;19.60;1.30
16532;DHT22;66872;63.142;14.482;2023-08-06T09:34:22;19.70;1.00
16532;DHT22;66872;63.142;14.482;2023-08-06T09:36:56;19.70;1.00
16532;DHT22;66872;63.142;14.482;2023-08-06T09:39:31;19.70;1.00
16532;DHT22;66872;63.142;14.482;2023-08-06T09:42:01;19.70;1.00
16532;DHT22;66872;63.142;14.482;2023-08-06T09:44:28;19.70;1.00
16532;DHT22;66872;63.142;14.482;2023-08-06T09:46:59;19.70;1.00
16532;DHT22;66872;63.142;14.482;2023-08-06T09:51:54;19.70;1.00
16532;DHT22;66872;63.142;14.482;2023-08-06T09:54:24;19.70;1.00
16532;DHT22;66872;63.142;14.482;2023-08-06T09:56:50;19.70;1.00
16532;DHT22;66872;63.142;14.482;2023-08-06T09:59:17;19.70;1.00
16532;DHT22;66872;63.142;14.482;2023-08-06T10:01:43;19.70;1.00
16532;DHT22;66872;63.142;14.482;2023-08-06T10:04:10;19.70;1.00
16532;DHT22;66872;63.142;14.482;2023-08-06T10:06:37;19.70;1.70
16532;DHT22;66872;63.142;14.482;2023-08-06T10:09:04;19.70;1.20
16532;DHT22;66872;63.142;14.482;2023-08-06T10:11:30;19.70;1.00
16532;DHT22;66872;63.142;14.482;2023-08-06T10:14:12;19.70;1.50
16532;DHT22;66872;63.142;14.482;2023-08-06T10:16:40;19.70;2.40
16532;DHT22;66872;63.142;14.482;2023-08-06T10:19:08;19.70;2.10
16532;DHT22;66872;63.142;14.482;2023-08-06T10:21:35;19.70;2.90
16532;DHT22;66872;63.142;14.482;2023-08-06T10:24:00;19.70;2.50
16532;DHT22;66872;63.142;14.482;2023-08-06T10:26:28;19.70;3.10
16532;DHT22;66872;63.142;14.482;2023-08-06T10:28:54;19.70;3.20
16532;DHT22;66872;63.142;14.482;2023-08-06T10:34:05;19.60;3.70
16532;DHT22;66872;63.142;14.482;2023-08-06T10:36:30;19.60;3.80
16532;DHT22;66872;63.142;14.482;2023-08-06T10:38:58;19.60;2.80
16532;DHT22;66872;63.142;14.482;2023-08-06T10:41:27;19.60;3.90
16532;DHT22;66872;63.142;14.482;2023-08-06T10:44:09;19.60;5.00
16532;DHT22;66872;63.142;14.482;2023-08-06T10:46:35;19.60;4.40
16532;DHT22;66872;63.142;14.482;2023-08-06T10:49:01;19.60;4.40
16532;DHT22;66872;63.142;14.482;2023-08-06T10:51:27;19.60;3.60
16532;DHT22;66872;63.142;14.482;2023-08-06T10:53:53;19.60;3.00
16532;DHT22;66872;63.142;14.482;2023-08-06T10:56:24;19.60;3.70
16532;DHT22;66872;63.142;14.482;2023-08-06T10:58:53;19.70;3.80
16532;DHT22;66872;63.142;14.482;2023-08-06T11:01:19;19.70;3.50
16532;DHT22;66872;63.142;14.482;2023-08-06T11:03:47;19.70;4.20
16532;DHT22;66872;63.142;14.482;2023-08-06T11:06:19;19.70;3.90
16532;DHT22;66872;63.142;14.482;2023-08-06T11:08:51;19.70;4.20
16532;DHT22;66872;63.142;14.482;2023-08-06T11:11:17;19.70;4.10
16532;DHT22;66872;63.142;14.482;2023-08-06T11:13:44;19.70;3.70
16532;DHT22;66872;63.142;14.482;2023-08-06T11:16:18;19.70;3.80
16532;DHT22;66872;63.142;14.482;2023-08-06T11:18:44;19.80;3.30
16532;DHT22;66872;63.142;14.482;2023-08-06T11:21:10;19.80;3.90
16532;DHT22;66872;63.142;14.482;2023-08-06T11:23:37;19.80;4.60
16532;DHT22;66872;63.142;14.482;2023-08-06T11:26:03;19.80;4.30
16532;DHT22;66872;63.142;14.482;2023-08-06T11:28:29;19.80;4.20
16532;DHT22;66872;63.142;14.482;2023-08-06T11:30:55;19.80;4.30
16532;DHT22;66872;63.142;14.482;2023-08-06T11:33:25;19.80;4.70
16532;DHT22;66872;63.142;14.482;2023-08-06T11:35:52;19.80;4.60
16532;DHT22;66872;63.142;14.482;2023-08-06T11:38:18;19.80;4.80
16532;DHT22;66872;63.142;14.482;2023-08-06T11:40:44;19.80;4.60
16532;DHT22;66872;63.142;14.482;2023-08-06T11:43:12;19.80;6.20
16532;DHT22;66872;63.142;14.482;2023-08-06T11:45:38;19.80;6.20
16532;DHT22;66872;63.142;14.482;2023-08-06T11:48:05;19.80;6.30
16532;DHT22;66872;63.142;14.482;2023-08-06T11:50:30;19.80;5.60
16532;DHT22;66872;63.142;14.482;2023-08-06T11:52:57;19.80;6.30
16532;DHT22;66872;63.142;14.482;2023-08-06T11:55:24;19.80;4.50
16532;DHT22;66872;63.142;14.482;2023-08-06T11:57:50;19.80;4.60
16532;DHT22;66872;63.142;14.482;2023-08-06T12:00:16;19.80;5.00
16532;DHT22;66872;63.142;14.482;2023-08-06T12:02:44;19.80;4.20
16532;DHT22;66872;63.142;14.482;2023-08-06T12:07:50;19.80;6.30
16532;DHT22;66872;63.142;14.482;2023-08-06T12:10:16;19.80;6.00
16532;DHT22;66872;63.142;14.482;2023-08-06T12:12:42;19.70;6.50
16532;DHT22;66872;63.142;14.482;2023-08-06T12:15:09;19.80;5.90
16532;DHT22;66872;63.142;14.482;2023-08-06T12:17:35;19.70;5.90
16532;DHT22;66872;63.142;14.482;2023-08-06T12:20:03;19.70;6.10
16532;DHT22;66872;63.142;14.482;2023-08-06T12:22:30;19.70;6.40
16532;DHT22;66872;63.142;14.482;2023-08-06T12:25:00;19.70;6.50
16532;DHT22;66872;63.142;14.482;2023-08-06T12:27:26;19.70;5.60
16532;DHT22;66872;63.142;14.482;2023-08-06T12:29:52;19.70;6.30
16532;DHT22;66872;63.142;14.482;2023-08-06T12:32:17;19.70;5.70
16532;DHT22;66872;63.142;14.482;2023-08-06T12:34:44;19.70;5.90
16532;DHT22;66872;63.142;14.482;2023-08-06T12:37:10;19.70;6.40
16532;DHT22;66872;63.142;14.482;2023-08-06T12:39:37;19.80;6.40
16532;DHT22;66872;63.142;14.482;2023-08-06T12:42:04;19.80;5.30
16532;DHT22;66872;63.142;14.482;2023-08-06T12:44:31;19.80;6.10
16532;DHT22;66872;63.142;14.482;2023-08-06T12:46:57;19.80;6.30
16532;DHT22;66872;63.142;14.482;2023-08-06T12:49:23;19.80;6.10
16532;DHT22;66872;63.142;14.482;2023-08-06T12:51:49;19.80;5.90
16532;DHT22;66872;63.142;14.482;2023-08-06T12:54:19;19.80;5.90
16532;DHT22;66872;63.142;14.482;2023-08-06T12:56:46;19.80;5.90
16532;DHT22;66872;63.142;14.482;2023-08-06T12:59:15;19.80;6.10
16532;DHT22;66872;63.142;14.482;2023-08-06T13:01:41;19.80;5.70
16532;DHT22;66872;63.142;14.482;2023-08-06T13:04:07;19.80;6.30
16532;DHT22;66872;63.142;14.482;2023-08-06T13:06:33;19.80;6.00
16532;DHT22;66872;63.142;14.482;2023-08-06T13:09:06;19.80;5.50
16532;DHT22;66872;63.142;14.482;2023-08-06T13:11:32;19.80;5.80
16532;DHT22;66872;63.142;14.482;2023-08-06T13:14:18;19.80;7.40
16532;DHT22;66872;63.142;14.482;2023-08-06T13:16:44;19.80;6.40
16532;DHT22;66872;63.142;14.482;2023-08-06T13:19:10;19.80;7.00
16532;DHT22;66872;63.142;14.482;2023-08-06T13:24:08;19.80;6.80
16532;DHT22;66872;63.142;14.482;2023-08-06T13:26:33;19.80;6.80
16532;DHT22;66872;63.142;14.482;2023-08-06T13:29:00;19.90;6.60
16532;DHT22;66872;63.142;14.482;2023-08-06T13:31:27;19.90;7.20
16532;DHT22;66872;63.142;14.482;2023-08-06T13:33:54;19.90;7.50
16532;DHT22;66872;63.142;14.482;2023-08-06T13:36:21;19.90;7.40
16532;DHT22;66872;63.142;14.482;2023-08-06T13:38:47;19.90;7.60
16532;DHT22;66872;63.142;14.482;2023-08-06T13:41:13;19.90;7.50
16532;DHT22;66872;63.142;14.482;2023-08-06T13:43:39;19.90;7.50
16532;DHT22;66872;63.142;14.482;2023-08-06T13:46:04;19.90;6.70
16532;DHT22;66872;63.142;14.482;2023-08-06T13:48:30;19.90;6.80
16532;DHT22;66872;63.142;14.482;2023-08-06T13:50:56;19.90;6.40
16532;DHT22;66872;63.142;14.482;2023-08-06T13:53:22;19.90;6.70
16532;DHT22;66872;63.142;14.482;2023-08-06T13:55:47;19.90;7.20
16532;DHT22;66872;63.142;14.482;2023-08-06T13:58:13;19.90;6.80
16532;DHT22;66872;63.142;14.482;2023-08-06T14:00:39;19.90;6.60
16532;DHT22;66872;63.142;14.482;2023-08-06T14:03:04;19.90;6.60
16532;DHT22;66872;63.142;14.482;2023-08-06T14:05:30;20.00;6.50
16532;DHT22;66872;63.142;14.482;2023-08-06T14:07:56;20.00;7.40
16532;DHT22;66872;63.142;14.482;2023-08-06T14:10:21;20.00;6.60
16532;DHT22;66872;63.142;14.482;2023-08-06T14:12:47;20.00;6.60
16532;DHT22;66872;63.142;14.482;2023-08-06T14:15:13;20.00;6.20
16532;DHT22;66872;63.142;14.482;2023-08-06T14:17:38;20.00;6.40
16532;DHT22;66872;63.142;14.482;2023-08-06T14:20:06;20.00;6.10
16532;DHT22;66872;63.142;14.482;2023-08-06T14:22:33;20.00;6.30
16532;DHT22;66872;63.142;14.482;2023-08-06T14:24:59;20.00;6.70
16532;DHT22;66872;63.142;14.482;2023-08-06T14:27:25;20.00;6.40
16532;DHT22;66872;63.142;14.482;2023-08-06T14:29:51;20.00;6.30
16532;DHT22;66872;63.142;14.482;2023-08-06T14:32:16;20.00;6.40
16532;DHT22;66872;63.142;14.482;2023-08-06T14:34:45;20.00;6.10
16532;DHT22;66872;63.142;14.482;2023-08-06T14:37:11;20.00;6.40
16532;DHT22;66872;63.142;14.482;2023-08-06T14:39:36;20.00;6.40
16532;DHT22;66872;63.142;14.482;2023-08-06T14:42:04;20.10;5.90
16532;DHT22;66872;63.142;14.482;2023-08-06T14:44:30;20.10;6.00
16532;DHT22;66872;63.142;14.482;2023-08-06T14:46:55;20.10;5.90
16532;DHT22;66872;63.142;14.482;2023-08-06T14:49:21;20.10;5.90
16532;DHT22;66872;63.142;14.482;2023-08-06T14:51:47;20.10;6.80
16532;DHT22;66872;63.142;14.482;2023-08-06T14:54:12;20.10;6.30
16532;DHT22;66872;63.142;14.482;2023-08-06T14:56:38;20.10;6.20
16532;DHT22;66872;63.142;14.482;2023-08-06T14:59:03;20.20;6.20
16532;DHT22;66872;63.142;14.482;2023-08-06T15:01:29;20.10;6.20
16532;DHT22;66872;63.142;14.482;2023-08-06T15:03:55;20.20;6.20
16532;DHT22;66872;63.142;14.482;2023-08-06T15:06:20;20.20;6.10
16532;DHT22;66872;63.142;14.482;2023-08-06T15:08:46;20.10;6.00
16532;DHT22;66872;63.142;14.482;2023-08-06T15:11:15;20.20;7.00
16532;DHT22;66872;63.142;14.482;2023-08-06T15:13:41;20.10;6.70
16532;DHT22;66872;63.142;14.482;2023-08-06T15:16:07;20.10;6.80
16532;DHT22;66872;63.142;14.482;2023-08-06T15:18:32;20.10;6.50
16532;DHT22;66872;63.142;14.482;2023-08-06T15:20:58;20.10;7.10
16532;DHT22;66872;63.142;14.482;2023-08-06T15:23:24;20.10;6.50
16532;DHT22;66872;63.142;14.482;2023-08-06T15:25:50;20.20;5.50
16532;DHT22;66872;63.142;14.482;2023-08-06T15:28:16;20.20;5.70
16532;DHT22;66872;63.142;14.482;2023-08-06T15:30:51;20.20;7.10
16532;DHT22;66872;63.142;14.482;2023-08-06T15:33:20;20.20;6.20
16532;DHT22;66872;63.142;14.482;2023-08-06T15:35:46;20.20;6.50
16532;DHT22;66872;63.142;14.482;2023-08-06T15:38:12;20.20;8.10
16532;DHT22;66872;63.142;14.482;2023-08-06T15:40:37;20.20;7.70